WXM80 ListenWXM80 Stop

You find our weather info also at:

UK Metoffice

WeatherCloud

Weather Underground

Northeastern Weather Network

AWEKAS

Citizen Weather Observer Program (CWOP)

HAMweather, WeatherForYou, PWS Weather


Weather Underground History page Text

Daily Summary for October 6, 2017 Units:  English    Metric   Both
« Previous Day
Next Day »
Daily Weekly Monthly Yearly Custom
  High: Low: Average:
Temperature: 80.5 °F 65.5 °F 71.4 °F
Dew Point: 67.5 °F 63.3 °F 65.1 °F
Humidity: 95 % 58 % 82 %
Wind Speed: 3.8 mph 0.0 mph 0.6 mph
Wind Gust: 8.1 mph - -
Wind:- - SSW
Pressure: 30.07 in 30.00 in -
Precipitation: 0.00 in    
Historical Graphs
 
 
Tabular Data for October 6, 2017
Time Temperature Dew Point Pressure Wind Wind Speed Wind Gust Humidity Rainfall Rate (Hourly)
00:01 72.2 °F 65.7 °F 30.03 in WSW 2.2 mph 3.5 mph 80 % 0.00 in
00:06 71.9 °F 65.4 °F 30.03 in SW 1.6 mph 8.1 mph 80 % 0.00 in
00:12 71.5 °F 65.4 °F 30.03 in WSW 1.6 mph 5.8 mph 81 % 0.00 in
00:17 71.3 °F 65.2 °F 30.03 in SSW 2.9 mph 6.0 mph 81 % 0.00 in
00:22 71.1 °F 65.0 °F 30.02 in WSW 1.8 mph 3.5 mph 81 % 0.00 in
00:27 70.9 °F 64.8 °F 30.02 in SW 1.9 mph 5.0 mph 81 % 0.00 in
00:32 70.7 °F 64.6 °F 30.02 in WSW 1.9 mph 3.5 mph 81 % 0.00 in
00:37 70.5 °F 64.0 °F 30.02 in WSW 1.2 mph 4.6 mph 80 % 0.00 in
00:42 70.4 °F 63.9 °F 30.02 in SW 2.3 mph 4.6 mph 80 % 0.00 in
00:47 70.4 °F 64.3 °F 30.02 in SW 0.3 mph 1.2 mph 81 % 0.00 in
00:52 70.3 °F 64.2 °F 30.02 in SW 0.5 mph 2.3 mph 81 % 0.00 in
00:57 70.3 °F 64.2 °F 30.02 in SW 0.7 mph 2.3 mph 81 % 0.00 in
01:02 70.3 °F 64.2 °F 30.03 in SW 0.2 mph 1.2 mph 81 % 0.00 in
01:07 70.3 °F 64.5 °F 30.03 in WSW 1.3 mph 4.0 mph 82 % 0.00 in
01:12 70.3 °F 64.9 °F 30.03 in Calm   1.2 mph 83 % 0.00 in
01:17 70.2 °F 64.8 °F 30.02 in WSW 0.3 mph 1.2 mph 83 % 0.00 in
01:22 70.2 °F 65.1 °F 30.02 in WSW 0.9 mph 3.5 mph 84 % 0.00 in
01:27 70.2 °F 65.1 °F 30.02 in WSW 1.6 mph 3.5 mph 84 % 0.00 in
01:37 70.1 °F 65.4 °F 30.03 in SW 0.1 mph 2.3 mph 85 % 0.00 in
01:42 70.1 °F 65.4 °F 30.03 in Calm   1.2 mph 85 % 0.00 in
01:47 70.1 °F 65.7 °F 30.03 in WSW 1.4 mph 3.5 mph 86 % 0.00 in
01:52 70.1 °F 65.7 °F 30.03 in WSW 0.2 mph 1.0 mph 86 % 0.00 in
01:58 70.0 °F 65.6 °F 30.03 in WSW 0.6 mph 3.0 mph 86 % 0.00 in
02:03 70.0 °F 65.6 °F 30.04 in WSW 0.4 mph 1.2 mph 86 % 0.00 in
02:08 69.9 °F 65.5 °F 30.04 in Calm     86 % 0.00 in
02:13 69.9 °F 65.5 °F 30.03 in WSW 0.9 mph 3.5 mph 86 % 0.00 in
02:28 69.7 °F 66.0 °F 30.03 in SW 0.9 mph 3.5 mph 88 % 0.00 in
02:38 69.7 °F 66.0 °F 30.03 in Calm     88 % 0.00 in
02:43 69.6 °F 65.9 °F 30.03 in Calm     88 % 0.00 in
02:53 69.4 °F 65.7 °F 30.02 in Calm     88 % 0.00 in
02:58 69.4 °F 65.7 °F 30.03 in Calm   1.0 mph 88 % 0.00 in
03:03 69.3 °F 65.6 °F 30.02 in SW 0.1 mph 1.0 mph 88 % 0.00 in
03:08 69.2 °F 65.5 °F 30.02 in SSW 0.3 mph 2.0 mph 88 % 0.00 in
03:13 69.1 °F 65.7 °F 30.02 in Calm     89 % 0.00 in
03:18 69.0 °F 65.3 °F 30.02 in Calm     88 % 0.00 in
03:23 68.9 °F 65.5 °F 30.02 in SSW 0.3 mph 1.2 mph 89 % 0.00 in
03:33 68.7 °F 65.3 °F 30.02 in Calm     89 % 0.00 in
03:38 68.6 °F 65.2 °F 30.02 in Calm   1.2 mph 89 % 0.00 in
03:43 68.5 °F 65.4 °F 30.02 in SSW 0.2 mph 2.3 mph 90 % 0.00 in
03:48 68.4 °F 65.4 °F 30.02 in SSW 0.7 mph 2.3 mph 90 % 0.00 in
03:53 68.3 °F 65.6 °F 30.03 in SW 0.7 mph 4.0 mph 91 % 0.00 in
03:58 68.3 °F 65.6 °F 30.03 in WSW 2.5 mph 3.5 mph 91 % 0.00 in
04:03 68.3 °F 65.6 °F 30.03 in WSW 0.2 mph 3.5 mph 91 % 0.00 in
04:08 68.2 °F 65.5 °F 30.04 in WSW 0.5 mph 2.3 mph 91 % 0.00 in
04:18 68.2 °F 65.5 °F 30.04 in Calm   1.2 mph 91 % 0.00 in
04:23 68.1 °F 65.4 °F 30.04 in Calm     91 % 0.00 in
04:28 68.1 °F 65.4 °F 30.04 in Calm     91 % 0.00 in
04:34 68.1 °F 65.4 °F 30.04 in Calm   1.2 mph 91 % 0.00 in
04:39 68.1 °F 65.7 °F 30.03 in Calm     92 % 0.00 in
04:44 68.1 °F 65.7 °F 30.04 in Calm     92 % 0.00 in
04:49 68.1 °F 65.7 °F 30.04 in Calm     92 % 0.00 in
04:54 68.0 °F 65.6 °F 30.04 in Calm     92 % 0.00 in
04:59 68.0 °F 65.6 °F 30.03 in Calm     92 % 0.00 in
05:04 67.9 °F 65.5 °F 30.03 in Calm     92 % 0.00 in
05:09 67.9 °F 65.2 °F 30.03 in Calm     91 % 0.00 in
05:14 67.8 °F 65.1 °F 30.04 in Calm     91 % 0.00 in
05:19 67.7 °F 65.3 °F 30.04 in WSW 0.1 mph 1.2 mph 92 % 0.00 in
05:24 67.7 °F 65.0 °F 30.04 in Calm   1.2 mph 91 % 0.00 in
05:29 67.6 °F 65.2 °F 30.04 in WSW 0.4 mph 1.2 mph 92 % 0.00 in
05:34 67.5 °F 65.1 °F 30.04 in Calm   1.2 mph 92 % 0.00 in
05:39 67.4 °F 65.0 °F 30.04 in WNW 0.6 mph 2.0 mph 92 % 0.00 in
05:44 67.3 °F 64.9 °F 30.05 in Calm     92 % 0.00 in
05:49 67.1 °F 64.7 °F 30.05 in Calm     92 % 0.00 in
05:59 66.9 °F 64.5 °F 30.05 in Calm     92 % 0.00 in
06:04 66.8 °F 64.4 °F 30.05 in WNW 0.3 mph 1.2 mph 92 % 0.00 in
06:10 66.7 °F 64.6 °F 30.05 in WNW 0.1 mph 1.2 mph 93 % 0.00 in
06:15 66.6 °F 64.5 °F 30.06 in WNW 0.3 mph 1.2 mph 93 % 0.00 in
06:20 66.6 °F 64.5 °F 30.05 in Calm   1.2 mph 93 % 0.00 in
06:25 66.5 °F 64.4 °F 30.05 in Calm     93 % 0.00 in
06:30 66.3 °F 64.2 °F 30.05 in Calm     93 % 0.00 in
06:35 66.3 °F 64.2 °F 30.05 in Calm     93 % 0.00 in
06:40 66.2 °F 64.1 °F 30.05 in Calm     93 % 0.00 in
06:45 66.1 °F 64.0 °F 30.06 in Calm     93 % 0.00 in
06:50 65.9 °F 63.8 °F 30.06 in Calm     93 % 0.00 in
06:55 65.9 °F 63.8 °F 30.06 in WNW 0.7 mph 2.3 mph 93 % 0.00 in
07:00 65.8 °F 63.7 °F 30.06 in WNW 0.3 mph 1.2 mph 93 % 0.00 in
07:05 65.7 °F 63.6 °F 30.06 in Calm     93 % 0.00 in
07:10 65.7 °F 63.6 °F 30.06 in Calm     93 % 0.00 in
07:15 65.6 °F 63.8 °F 30.07 in Calm   1.2 mph 94 % 0.00 in
07:20 65.6 °F 63.8 °F 30.07 in Calm     94 % 0.00 in
07:25 65.6 °F 63.8 °F 30.07 in Calm     94 % 0.00 in
07:30 65.5 °F 63.7 °F 30.07 in Calm     94 % 0.00 in
07:41 65.5 °F 63.7 °F 30.07 in Calm     94 % 0.00 in
07:46 65.5 °F 63.7 °F 30.07 in Calm     94 % 0.00 in
07:56 65.6 °F 64.1 °F 30.07 in Calm     95 % 0.00 in
08:01 65.6 °F 64.1 °F 30.07 in Calm     95 % 0.00 in
08:06 65.7 °F 64.2 °F 30.07 in Calm     95 % 0.00 in
08:11 65.8 °F 64.3 °F 30.07 in Calm     95 % 0.00 in
08:16 65.8 °F 64.3 °F 30.07 in Calm     95 % 0.00 in
08:21 65.9 °F 64.4 °F 30.07 in Calm     95 % 0.00 in
08:26 66.0 °F 64.5 °F 30.07 in Calm     95 % 0.00 in
08:31 66.0 °F 64.5 °F 30.07 in Calm   1.2 mph 95 % 0.00 in
08:32 66.0 °F 64.5 °F 30.07 in Calm     95 % 0.00 in
08:37 66.0 °F 64.5 °F 30.07 in West 0.1 mph 1.2 mph 95 % 0.00 in
08:42 66.1 °F 64.6 °F 30.07 in Calm     95 % 0.00 in
08:47 66.3 °F 64.8 °F 30.07 in WNW 0.2 mph 2.3 mph 95 % 0.00 in
08:52 66.3 °F 64.8 °F 30.07 in West 0.6 mph 2.3 mph 95 % 0.00 in
08:57 66.4 °F 64.9 °F 30.07 in West 1.0 mph 2.3 mph 95 % 0.00 in
09:02 66.4 °F 64.6 °F 30.07 in WSW 0.8 mph 2.3 mph 94 % 0.00 in
09:07 66.4 °F 64.3 °F 30.07 in Calm     93 % 0.00 in
09:17 66.6 °F 64.2 °F 30.07 in Calm   1.2 mph 92 % 0.00 in
09:23 66.6 °F 63.9 °F 30.07 in WSW 1.0 mph 2.0 mph 91 % 0.00 in
09:28 66.8 °F 64.1 °F 30.07 in WNW 0.1 mph 1.2 mph 91 % 0.00 in
09:33 66.9 °F 63.9 °F 30.07 in WNW 1.5 mph 3.5 mph 90 % 0.00 in
09:38 67.0 °F 63.6 °F 30.07 in NW 2.3 mph 4.0 mph 89 % 0.00 in
09:43 67.2 °F 63.5 °F 30.07 in West 1.1 mph 3.5 mph 88 % 0.00 in
09:48 67.4 °F 63.7 °F 30.07 in West 1.5 mph 3.5 mph 88 % 0.00 in
09:53 67.7 °F 64.3 °F 30.07 in North 1.3 mph 3.5 mph 89 % 0.00 in
10:03 68.3 °F 64.9 °F 30.07 in WNW 1.2 mph 3.5 mph 89 % 0.00 in
10:08 68.5 °F 64.8 °F 30.07 in WNW 0.1 mph 1.2 mph 88 % 0.00 in
10:13 68.8 °F 64.8 °F 30.07 in NW 0.7 mph 3.5 mph 87 % 0.00 in
10:18 69.1 °F 64.7 °F 30.07 in North 3.3 mph 6.9 mph 86 % 0.00 in
10:23 69.5 °F 64.8 °F 30.07 in NW 1.7 mph 4.6 mph 85 % 0.00 in
10:28 69.9 °F 64.8 °F 30.07 in North 2.2 mph 3.5 mph 84 % 0.00 in
10:33 70.2 °F 64.4 °F 30.07 in NE 3.6 mph 5.8 mph 82 % 0.00 in
10:38 70.5 °F 64.4 °F 30.07 in North 2.8 mph 5.8 mph 81 % 0.00 in
10:43 70.8 °F 65.0 °F 30.07 in NW 1.7 mph 3.5 mph 82 % 0.00 in
10:48 71.0 °F 65.2 °F 30.07 in North 2.8 mph 4.0 mph 82 % 0.00 in
10:53 71.2 °F 65.1 °F 30.07 in North 1.8 mph 4.0 mph 81 % 0.00 in
10:58 71.3 °F 64.4 °F 30.07 in NW 1.1 mph 2.3 mph 79 % 0.00 in
11:03 71.5 °F 65.0 °F 30.06 in NNW 1.9 mph 3.0 mph 80 % 0.00 in
11:08 71.7 °F 65.6 °F 30.06 in NW 2.0 mph 3.5 mph 81 % 0.00 in
11:13 72.1 °F 64.9 °F 30.06 in WNW 1.9 mph 3.5 mph 78 % 0.00 in
11:18 72.7 °F 66.2 °F 30.06 in North 0.2 mph 2.3 mph 80 % 0.00 in
11:23 73.4 °F 66.5 °F 30.06 in NNE 1.5 mph 3.0 mph 79 % 0.00 in
11:34 74.3 °F 64.7 °F 30.06 in NNW 1.2 mph 3.5 mph 72 % 0.00 in
11:39 74.6 °F 66.1 °F 30.06 in North 1.3 mph 3.5 mph 75 % 0.00 in
11:44 75.0 °F 66.1 °F 30.06 in North 1.4 mph 3.5 mph 74 % 0.00 in
11:49 75.4 °F 66.5 °F 30.06 in North 1.2 mph 3.5 mph 74 % 0.00 in
11:54 75.8 °F 65.3 °F 30.06 in North 0.9 mph 2.3 mph 70 % 0.00 in
11:59 76.6 °F 65.7 °F 30.06 in NNW 1.8 mph 3.5 mph 69 % 0.00 in
12:04 77.1 °F 65.7 °F 30.06 in NW 0.6 mph 2.3 mph 68 % 0.00 in
12:09 77.5 °F 66.5 °F 30.06 in North 3.5 mph 4.6 mph 69 % 0.00 in
12:19 78.2 °F 65.5 °F 30.06 in Calm   1.2 mph 65 % 0.00 in
12:24 78.4 °F 66.1 °F 30.06 in NNW 1.1 mph 2.3 mph 66 % 0.00 in
12:29 78.2 °F 66.8 °F 30.05 in North 0.2 mph 2.3 mph 68 % 0.00 in
12:34 78.3 °F 66.0 °F 30.05 in NNE 3.1 mph 6.0 mph 66 % 0.00 in
12:39 78.4 °F 65.2 °F 30.05 in WNW 1.9 mph 4.6 mph 64 % 0.00 in
12:44 78.5 °F 65.8 °F 30.05 in North 0.8 mph 3.5 mph 65 % 0.00 in
12:49 78.8 °F 66.0 °F 30.05 in NNW 1.0 mph 4.6 mph 65 % 0.00 in
12:54 79.1 °F 66.3 °F 30.05 in North 0.7 mph 3.5 mph 65 % 0.00 in
12:59 79.4 °F 65.7 °F 30.04 in North 3.8 mph 5.8 mph 63 % 0.00 in
13:06 79.8 °F 65.2 °F 30.04 in NNE 3.3 mph 5.8 mph 61 % 0.00 in
13:11 80.0 °F 65.3 °F 30.05 in NNE 2.7 mph 5.8 mph 61 % 0.00 in
13:16 80.2 °F 65.1 °F 30.04 in NNW 1.3 mph 3.5 mph 60 % 0.00 in
13:21 80.5 °F 65.8 °F 30.04 in NNW 1.3 mph 5.8 mph 61 % 0.00 in
13:26 80.4 °F 66.2 °F 30.03 in NNE 3.4 mph 4.0 mph 62 % 0.00 in
13:31 80.3 °F 67.5 °F 30.04 in NNE 1.5 mph 4.0 mph 65 % 0.00 in
13:36 80.2 °F 67.4 °F 30.03 in NE 0.8 mph 2.3 mph 65 % 0.00 in
13:41 80.2 °F 66.9 °F 30.03 in NNE 0.8 mph 2.3 mph 64 % 0.00 in
13:46 80.2 °F 66.9 °F 30.03 in NNE 1.4 mph 1.4 mph 64 % 0.00 in
13:51 80.2 °F 67.4 °F 30.02 in NNE 1.2 mph 3.5 mph 65 % 0.00 in
13:57 80.2 °F 66.5 °F 30.02 in North 2.2 mph 3.0 mph 63 % 0.00 in
14:02 80.3 °F 66.1 °F 30.02 in NNE 2.8 mph 4.0 mph 62 % 0.00 in
14:06 80.3 °F 66.1 °F 30.03 in NNE 0.6 mph 3.5 mph 62 % 0.00 in
14:11 80.2 °F 65.1 °F 30.02 in NNW 0.2 mph 2.3 mph 60 % 0.00 in
14:16 80.3 °F 66.6 °F 30.02 in NNW 0.1 mph 1.0 mph 63 % 0.00 in
14:21 80.3 °F 65.1 °F 30.02 in North 2.0 mph 4.0 mph 60 % 0.00 in
14:26 80.2 °F 66.0 °F 30.02 in Calm   4.0 mph 62 % 0.00 in
14:31 80.2 °F 65.5 °F 30.02 in NNE 1.0 mph 3.0 mph 61 % 0.00 in
14:36 80.1 °F 65.0 °F 30.02 in North 1.0 mph 4.0 mph 60 % 0.00 in
14:41 80.0 °F 64.4 °F 30.02 in Calm   3.0 mph 59 % 0.00 in
14:46 80.1 °F 65.0 °F 30.02 in NNW 1.0 mph 3.0 mph 60 % 0.00 in
14:51 80.2 °F 64.6 °F 30.02 in North 3.0 mph 6.0 mph 59 % 0.00 in
14:52 80.2 °F 64.6 °F 30.02 in North 2.4 mph 3.5 mph 59 % 0.00 in
14:57 80.3 °F 65.1 °F 30.02 in Calm   2.3 mph 60 % 0.00 in
15:02 80.3 °F 65.1 °F 30.01 in North 0.1 mph 1.2 mph 60 % 0.00 in
15:07 80.2 °F 65.1 °F 30.02 in NE 0.4 mph 1.2 mph 60 % 0.00 in
15:12 80.2 °F 65.1 °F 30.02 in NNE 0.4 mph 1.2 mph 60 % 0.00 in
15:17 80.1 °F 66.4 °F 30.02 in NNE 0.1 mph 1.0 mph 63 % 0.00 in
15:22 79.7 °F 64.6 °F 30.02 in NNE 0.4 mph 2.3 mph 60 % 0.00 in
15:27 79.5 °F 64.9 °F 30.01 in Calm     61 % 0.00 in
15:32 79.3 °F 64.2 °F 30.01 in Calm   1.2 mph 60 % 0.00 in
15:42 79.4 °F 63.3 °F 30.00 in Calm     58 % 0.00 in
15:47 79.3 °F 64.7 °F 30.00 in West 0.3 mph 1.2 mph 61 % 0.00 in
15:52 79.1 °F 65.0 °F 30.00 in Calm   1.2 mph 62 % 0.00 in
15:57 78.9 °F 63.8 °F 30.00 in Calm   1.2 mph 60 % 0.00 in
16:02 78.8 °F 64.7 °F 30.01 in Calm   1.0 mph 62 % 0.00 in
16:07 78.5 °F 63.5 °F 30.00 in North 0.3 mph 1.2 mph 60 % 0.00 in
16:12 78.3 °F 63.7 °F 30.00 in Calm     61 % 0.00 in
16:17 78.2 °F 63.6 °F 30.00 in North 0.2 mph 1.0 mph 61 % 0.00 in
16:22 78.0 °F 63.5 °F 30.00 in North 0.3 mph 1.2 mph 61 % 0.00 in
16:27 77.8 °F 64.2 °F 30.00 in Calm     63 % 0.00 in
16:32 77.6 °F 63.5 °F 30.00 in Calm     62 % 0.00 in
16:37 77.5 °F 63.5 °F 30.00 in Calm     62 % 0.00 in
16:42 77.3 °F 63.7 °F 30.00 in Calm   1.0 mph 63 % 0.00 in
16:52 77.1 °F 64.4 °F 30.00 in Calm     65 % 0.00 in
16:57 76.9 °F 64.2 °F 30.00 in NE 0.1 mph 2.3 mph 65 % 0.00 in
17:02 76.8 °F 64.6 °F 30.01 in Calm   1.2 mph 66 % 0.00 in
17:07 76.7 °F 64.9 °F 30.01 in NE 0.2 mph 1.0 mph 67 % 0.00 in
17:12 76.6 °F 65.2 °F 30.01 in East 0.5 mph 2.3 mph 68 % 0.00 in
17:17 76.4 °F 65.9 °F 30.00 in Calm     70 % 0.00 in
17:22 76.1 °F 65.6 °F 30.00 in SE 1.1 mph 4.6 mph 70 % 0.00 in
17:28 75.8 °F 65.7 °F 30.00 in SE 0.6 mph 4.0 mph 71 % 0.00 in
17:33 75.5 °F 65.8 °F 30.00 in SE 1.1 mph 5.8 mph 72 % 0.00 in
17:38 75.1 °F 65.9 °F 30.00 in SSE 1.0 mph 4.0 mph 73 % 0.00 in
17:43 74.8 °F 66.0 °F 30.00 in SE 0.7 mph 2.3 mph 74 % 0.00 in
17:48 74.6 °F 66.1 °F 30.00 in Calm   1.2 mph 75 % 0.00 in
17:53 74.4 °F 66.0 °F 30.00 in Calm   1.2 mph 75 % 0.00 in
17:58 74.2 °F 65.8 °F 30.01 in Calm   1.2 mph 75 % 0.00 in
18:03 74.0 °F 66.0 °F 30.00 in SE 0.1 mph 1.0 mph 76 % 0.00 in
18:08 73.8 °F 65.8 °F 30.01 in Calm   2.3 mph 76 % 0.00 in
18:13 73.6 °F 65.9 °F 30.01 in SE 0.2 mph 1.2 mph 77 % 0.00 in
18:18 73.3 °F 65.7 °F 30.00 in SE 0.1 mph 1.2 mph 77 % 0.00 in
18:23 73.1 °F 65.8 °F 30.00 in SE 1.5 mph 5.0 mph 78 % 0.00 in
18:28 72.7 °F 65.8 °F 30.01 in SE 1.9 mph 3.5 mph 79 % 0.00 in
18:33 72.5 °F 65.6 °F 30.01 in Calm     79 % 0.00 in
18:38 72.4 °F 65.5 °F 30.01 in Calm     79 % 0.00 in
18:43 72.2 °F 65.7 °F 30.01 in Calm     80 % 0.00 in
18:48 72.0 °F 65.8 °F 30.01 in Calm     81 % 0.00 in
18:53 71.8 °F 65.7 °F 30.01 in SE 0.6 mph 4.0 mph 81 % 0.00 in
18:58 71.5 °F 65.7 °F 30.01 in SE 0.1 mph 1.0 mph 82 % 0.00 in
19:04 71.2 °F 65.8 °F 30.02 in SE 0.1 mph 2.3 mph 83 % 0.00 in
19:09 71.1 °F 65.7 °F 30.02 in Calm     83 % 0.00 in
19:14 71.0 °F 65.6 °F 30.02 in Calm     83 % 0.00 in
19:19 70.7 °F 65.6 °F 30.02 in Calm   2.3 mph 84 % 0.00 in
19:24 70.5 °F 65.8 °F 30.02 in Calm     85 % 0.00 in
19:29 70.4 °F 65.7 °F 30.02 in Calm     85 % 0.00 in
19:34 70.3 °F 65.6 °F 30.03 in Calm   1.2 mph 85 % 0.00 in
19:39 70.2 °F 65.8 °F 30.03 in SE 0.1 mph 1.2 mph 86 % 0.00 in
19:44 70.1 °F 65.7 °F 30.03 in SE 0.1 mph 1.2 mph 86 % 0.00 in
19:49 70.0 °F 65.6 °F 30.03 in Calm     86 % 0.00 in
19:54 69.9 °F 65.5 °F 30.03 in Calm     86 % 0.00 in
19:59 69.8 °F 65.8 °F 30.03 in Calm   3.5 mph 87 % 0.00 in
20:04 69.7 °F 65.7 °F 30.03 in Calm     87 % 0.00 in
20:09 69.6 °F 65.6 °F 30.02 in Calm     87 % 0.00 in
20:14 69.5 °F 65.5 °F 30.03 in Calm     87 % 0.00 in
20:24 69.4 °F 65.4 °F 30.03 in SE 0.1 mph 1.0 mph 87 % 0.00 in
20:29 69.3 °F 65.3 °F 30.03 in Calm     87 % 0.00 in
20:34 69.2 °F 65.5 °F 30.03 in Calm     88 % 0.00 in
20:39 69.2 °F 65.5 °F 30.03 in Calm     88 % 0.00 in
20:44 69.1 °F 65.4 °F 30.03 in Calm   1.2 mph 88 % 0.00 in
20:49 69.0 °F 65.3 °F 30.03 in Calm   1.2 mph 88 % 0.00 in
20:55 69.0 °F 65.3 °F 30.03 in SSE 0.6 mph 1.2 mph 88 % 0.00 in
21:00 68.9 °F 65.2 °F 30.03 in Calm     88 % 0.00 in
21:05 68.9 °F 65.5 °F 30.03 in Calm   1.2 mph 89 % 0.00 in
21:10 68.8 °F 65.4 °F 30.04 in Calm     89 % 0.00 in
21:20 68.8 °F 65.4 °F 30.04 in Calm     89 % 0.00 in
21:25 68.7 °F 65.0 °F 30.04 in Calm     88 % 0.00 in
21:30 68.6 °F 65.2 °F 30.04 in Calm   1.2 mph 89 % 0.00 in
21:35 68.6 °F 65.5 °F 30.04 in Calm     90 % 0.00 in
21:40 68.6 °F 65.5 °F 30.04 in Calm     90 % 0.00 in
21:45 68.5 °F 65.4 °F 30.04 in Calm     90 % 0.00 in
21:50 68.4 °F 65.4 °F 30.04 in Calm     90 % 0.00 in
21:55 68.4 °F 65.4 °F 30.04 in Calm     90 % 0.00 in
22:00 68.3 °F 65.3 °F 30.04 in Calm     90 % 0.00 in
22:05 68.3 °F 65.3 °F 30.05 in Calm     90 % 0.00 in
22:10 68.2 °F 65.2 °F 30.05 in Calm     90 % 0.00 in
22:15 68.2 °F 65.2 °F 30.05 in SE 0.1 mph 1.2 mph 90 % 0.00 in
22:20 68.1 °F 65.4 °F 30.05 in SSE 0.7 mph 2.3 mph 91 % 0.00 in
22:25 68.1 °F 65.4 °F 30.05 in Calm     91 % 0.00 in
22:30 68.0 °F 65.3 °F 30.05 in Calm     91 % 0.00 in
22:35 68.0 °F 65.3 °F 30.04 in Calm     91 % 0.00 in
22:40 67.9 °F 65.2 °F 30.05 in Calm     91 % 0.00 in
22:46 67.9 °F 65.2 °F 30.05 in Calm     91 % 0.00 in
22:51 67.8 °F 65.1 °F 30.05 in Calm     91 % 0.00 in
22:56 67.8 °F 65.1 °F 30.05 in Calm     91 % 0.00 in
23:01 67.7 °F 65.0 °F 30.05 in Calm     91 % 0.00 in
23:06 67.6 °F 64.9 °F 30.05 in Calm     91 % 0.00 in
23:16 67.6 °F 64.9 °F 30.05 in Calm     91 % 0.00 in
23:21 67.5 °F 64.8 °F 30.05 in Calm     91 % 0.00 in
23:25 67.5 °F 64.8 °F 30.05 in Calm     91 % 0.00 in
23:30 67.4 °F 64.7 °F 30.05 in Calm     91 % 0.00 in
23:35 67.4 °F 65.0 °F 30.05 in Calm     92 % 0.00 in
23:36 67.4 °F 64.7 °F 30.05 in Calm   1.0 mph 91 % 0.00 in
23:41 67.4 °F 65.0 °F 30.05 in Calm   1.0 mph 92 % 0.00 in
23:46 67.3 °F 64.9 °F 30.05 in Calm     92 % 0.00 in
23:51 67.3 °F 64.9 °F 30.05 in Calm     92 % 0.00 in
23:56 67.2 °F 64.8 °F 30.05 in Calm     92 % 0.00 in
Crab Meadow Weather
Compliments of Weather Underground - 2.75 mb

Script developed by  Jim McMurry - jmcmurry@mwt.net Adapted for the template by  Wim van der Kuil - Leuven-Template.eu

Lightning: Lightning can strike the same place twice and sometimes many times. The Empire State Building in New York City is struck an average of 23 times a year. During one thunderstorm it was struck 8 times in 24 minutes.